createdAt,value
2017-08-11T00:02:02.780Z,88.20
2017-08-11T00:04:30.523Z,88.21
2017-08-11T00:06:58.333Z,89.15
2017-08-11T00:09:26.049Z,89.70
2017-08-11T00:11:53.736Z,88.92
2017-08-11T00:14:21.500Z,89.38
2017-08-11T00:16:49.260Z,89.63
2017-08-11T00:19:17.017Z,89.45
2017-08-11T00:21:44.757Z,89.16
2017-08-11T00:24:12.568Z,89.22
2017-08-11T00:26:40.333Z,88.89
2017-08-11T00:29:08.116Z,89.88
2017-08-11T00:31:35.865Z,89.92
2017-08-11T00:34:03.620Z,89.55
2017-08-11T00:36:32.383Z,89.41
2017-08-11T00:39:00.138Z,89.12
2017-08-11T00:41:27.925Z,89.73
2017-08-11T00:43:55.619Z,90.38
2017-08-11T00:46:23.381Z,89.89
2017-08-11T00:48:51.091Z,89.58
2017-08-11T00:51:18.874Z,89.35
2017-08-11T00:53:46.611Z,88.59
2017-08-11T00:56:14.307Z,88.46
2017-08-11T00:58:42.028Z,89.60
2017-08-11T01:01:09.751Z,89.81
2017-08-11T01:03:37.426Z,89.69
2017-08-11T01:06:05.159Z,90.10
2017-08-11T01:08:32.999Z,89.51
2017-08-11T01:11:00.811Z,89.06
2017-08-11T01:13:28.509Z,88.69
2017-08-11T01:15:56.276Z,87.74
2017-08-11T01:18:24.000Z,88.87
2017-08-11T01:20:51.689Z,89.89
2017-08-11T01:23:19.442Z,89.22
2017-08-11T01:25:47.108Z,88.67
2017-08-11T01:28:14.830Z,88.88
2017-08-11T01:30:42.594Z,88.84
2017-08-11T01:33:10.320Z,89.14
2017-08-11T01:35:38.080Z,88.54
2017-08-11T01:38:05.872Z,88.99
2017-08-11T01:40:33.577Z,90.18
2017-08-11T01:43:01.357Z,89.42
2017-08-11T01:45:29.151Z,89.57
2017-08-11T01:47:56.841Z,89.43
2017-08-11T01:50:24.579Z,90.14
2017-08-11T01:52:52.336Z,90.13
2017-08-11T01:55:20.058Z,89.48
2017-08-11T01:57:47.759Z,90.34
2017-08-11T02:00:15.609Z,89.97
2017-08-11T02:02:43.495Z,90.76
2017-08-11T02:05:11.375Z,90.93
2017-08-11T02:07:39.180Z,90.44
2017-08-11T02:10:06.993Z,90.28
2017-08-11T02:12:34.810Z,88.89
2017-08-11T02:15:03.978Z,89.32
2017-08-11T02:17:31.753Z,90.78
2017-08-11T02:19:59.545Z,90.90
2017-08-11T02:22:27.316Z,90.63
2017-08-11T02:24:55.197Z,90.21
2017-08-11T02:27:22.990Z,89.48
2017-08-11T02:29:50.742Z,90.21
2017-08-11T02:32:18.464Z,90.25
2017-08-11T02:34:46.215Z,90.29
2017-08-11T02:37:13.925Z,90.88
2017-08-11T02:39:42.692Z,91.15
2017-08-11T02:42:10.449Z,91.07
2017-08-11T02:44:38.184Z,90.43
2017-08-11T02:47:05.943Z,89.92
2017-08-11T02:49:33.669Z,89.95
2017-08-11T02:52:01.405Z,91.14
2017-08-11T02:54:30.347Z,90.93
2017-08-11T02:56:58.049Z,92.17
2017-08-11T02:59:25.815Z,91.26
2017-08-11T03:01:53.525Z,89.80
2017-08-11T03:04:21.246Z,90.09
2017-08-11T03:06:49.542Z,90.46
2017-08-11T03:09:17.241Z,91.01
2017-08-11T03:11:45.000Z,90.58
2017-08-11T03:14:12.701Z,90.12
2017-08-11T03:16:40.470Z,89.76
2017-08-11T03:19:08.180Z,89.79
2017-08-11T03:21:35.977Z,90.23
2017-08-11T03:24:03.664Z,90.63
2017-08-11T03:26:31.447Z,90.56
2017-08-11T03:28:59.146Z,90.82
2017-08-11T03:31:26.856Z,92.10
2017-08-11T03:33:54.601Z,92.46
2017-08-11T03:36:22.281Z,92.18
2017-08-11T03:38:49.975Z,89.98
2017-08-11T03:41:17.713Z,89.96
2017-08-11T03:43:45.396Z,91.21
2017-08-11T03:46:13.180Z,91.40
2017-08-11T03:48:40.889Z,89.61
2017-08-11T03:51:08.646Z,89.31
2017-08-11T03:53:36.335Z,90.01
2017-08-11T03:56:04.123Z,89.71
2017-08-11T03:58:31.827Z,89.70
2017-08-11T04:00:59.521Z,89.88
2017-08-11T04:03:27.314Z,90.44
2017-08-11T04:05:55.069Z,91.25
2017-08-11T04:08:22.781Z,91.11
2017-08-11T04:10:50.555Z,91.46
2017-08-11T04:13:18.309Z,91.33
2017-08-11T04:15:46.142Z,91.02
2017-08-11T04:18:13.844Z,91.24
2017-08-11T04:20:41.557Z,91.44
2017-08-11T04:23:09.302Z,90.57
2017-08-11T04:25:37.037Z,89.87
2017-08-11T04:28:04.755Z,89.55
2017-08-11T04:30:32.513Z,89.77
2017-08-11T04:33:00.226Z,89.84
2017-08-11T04:35:27.960Z,89.85
2017-08-11T04:37:55.711Z,90.53
2017-08-11T04:40:23.477Z,91.12
2017-08-11T04:42:51.185Z,91.08
2017-08-11T04:45:18.935Z,90.93
2017-08-11T04:47:46.658Z,90.17
2017-08-11T04:50:14.456Z,90.26
2017-08-11T04:52:42.141Z,90.22
2017-08-11T04:55:09.920Z,87.84
2017-08-11T04:57:37.624Z,84.65
2017-08-11T05:00:05.373Z,86.07
2017-08-11T05:02:33.138Z,87.53
2017-08-11T05:05:00.906Z,89.21
2017-08-11T05:07:28.664Z,87.83
2017-08-11T05:09:56.363Z,88.55
2017-08-11T05:12:25.270Z,89.18
2017-08-11T05:14:53.023Z,90.51
2017-08-11T05:17:21.539Z,90.27
2017-08-11T05:19:49.357Z,89.33
2017-08-11T05:22:18.692Z,89.51
2017-08-11T05:24:47.006Z,89.68
2017-08-11T05:27:15.638Z,89.50
2017-08-11T05:29:43.438Z,89.49
2017-08-11T05:32:11.151Z,89.55
2017-08-11T05:34:38.884Z,89.89
2017-08-11T05:37:07.712Z,90.67
2017-08-11T05:39:35.552Z,91.29
2017-08-11T05:42:03.329Z,91.78
2017-08-11T05:44:31.288Z,90.09
2017-08-11T05:46:58.993Z,85.99
2017-08-11T05:49:26.766Z,88.54
2017-08-11T05:51:54.493Z,87.53
2017-08-11T05:54:22.279Z,86.17
2017-08-11T05:56:49.986Z,86.27
2017-08-11T05:59:17.783Z,85.86
2017-08-11T06:01:45.558Z,85.30
2017-08-11T06:04:13.303Z,85.62
2017-08-11T06:06:41.106Z,86.69
2017-08-11T06:09:08.894Z,87.65
2017-08-11T06:11:36.713Z,87.35
2017-08-11T06:14:04.482Z,84.91
2017-08-11T06:16:32.294Z,85.68
2017-08-11T06:19:00.126Z,86.12
2017-08-11T06:21:27.936Z,86.86
2017-08-11T06:23:55.769Z,85.27
2017-08-11T06:26:23.506Z,86.74
2017-08-11T06:28:51.368Z,87.17
2017-08-11T06:31:19.120Z,87.56
2017-08-11T06:33:47.060Z,88.62
2017-08-11T06:36:14.796Z,86.50
2017-08-11T06:38:42.504Z,84.62
2017-08-11T06:41:10.234Z,85.41
2017-08-11T06:43:37.996Z,86.12
2017-08-11T06:46:05.686Z,86.48
2017-08-11T06:48:33.491Z,85.80
2017-08-11T06:51:01.329Z,86.30
2017-08-11T06:53:29.061Z,85.18
2017-08-11T06:55:56.915Z,84.37
2017-08-11T06:58:24.675Z,81.74
2017-08-11T07:00:52.467Z,81.79
2017-08-11T07:03:20.233Z,82.19
2017-08-11T07:05:47.952Z,83.55
2017-08-11T07:08:15.694Z,82.70
2017-08-11T07:10:43.429Z,82.76
2017-08-11T07:13:11.178Z,84.84
2017-08-11T07:15:38.955Z,84.88
2017-08-11T07:18:06.675Z,86.68
2017-08-11T07:20:34.428Z,84.91
2017-08-11T07:23:02.144Z,84.29
2017-08-11T07:25:30.094Z,83.93
2017-08-11T07:27:57.951Z,82.92
2017-08-11T07:30:25.726Z,83.46
2017-08-11T07:32:53.537Z,85.10
2017-08-11T07:35:21.345Z,84.54
2017-08-11T07:37:49.216Z,84.73
2017-08-11T07:40:17.023Z,86.71
2017-08-11T07:42:44.886Z,85.80
2017-08-11T07:45:12.671Z,86.53
2017-08-11T07:47:41.203Z,86.15
2017-08-11T07:50:08.884Z,85.51
2017-08-11T07:52:37.559Z,86.43
2017-08-11T07:55:05.360Z,85.54
2017-08-11T07:57:33.075Z,85.14
2017-08-11T08:00:00.912Z,85.63
2017-08-11T08:02:28.716Z,84.47
2017-08-11T08:04:56.418Z,81.04
2017-08-11T08:07:24.122Z,84.64
2017-08-11T08:09:51.881Z,86.45
2017-08-11T08:12:20.459Z,86.66
2017-08-11T08:14:48.165Z,86.33
2017-08-11T08:17:15.974Z,82.42
2017-08-11T08:19:43.779Z,83.26
2017-08-11T08:22:11.461Z,84.97
2017-08-11T08:24:39.195Z,86.38
2017-08-11T08:27:07.026Z,86.84
2017-08-11T08:29:34.715Z,87.27
2017-08-11T08:32:02.419Z,87.53
2017-08-11T08:34:30.203Z,87.01
2017-08-11T08:36:57.939Z,87.90
2017-08-11T08:39:25.653Z,88.34
2017-08-11T08:41:54.501Z,88.44
2017-08-11T08:44:22.305Z,86.92
2017-08-11T08:46:50.150Z,87.01
2017-08-11T08:49:17.861Z,87.08
2017-08-11T08:51:45.609Z,87.92
2017-08-11T08:54:13.409Z,86.71
2017-08-11T08:56:41.148Z,88.74
2017-08-11T08:59:08.916Z,90.42
2017-08-11T09:01:36.836Z,89.45
2017-08-11T09:04:04.627Z,88.68
2017-08-11T09:06:32.375Z,87.48
2017-08-11T09:09:00.206Z,88.27
2017-08-11T09:11:27.927Z,88.36
2017-08-11T09:13:55.714Z,88.02
2017-08-11T09:16:23.418Z,87.86
2017-08-11T09:18:51.204Z,87.84
2017-08-11T09:21:18.982Z,88.91
2017-08-11T09:23:46.735Z,87.36
2017-08-11T09:26:26.373Z,87.47
2017-08-11T09:29:05.846Z,84.88
2017-08-11T09:34:55.197Z,80.28
2017-08-11T09:37:22.988Z,81.69
2017-08-11T09:39:50.799Z,82.26
2017-08-11T09:42:18.560Z,81.23
2017-08-11T09:44:46.392Z,82.26
2017-08-11T09:47:14.108Z,80.85
2017-08-11T09:49:41.867Z,79.51
2017-08-11T09:52:09.659Z,76.11
2017-08-11T09:54:37.444Z,76.61
2017-08-11T09:57:05.233Z,80.28
2017-08-11T09:59:33.021Z,82.92
2017-08-11T10:02:00.841Z,78.71
2017-08-11T10:04:28.640Z,77.54
2017-08-11T10:06:56.505Z,81.58
2017-08-11T10:09:24.218Z,82.26
2017-08-11T10:11:51.934Z,82.72
2017-08-11T10:14:19.725Z,82.13
2017-08-11T10:16:47.418Z,80.47
2017-08-11T10:19:15.994Z,79.28
2017-08-11T10:21:43.802Z,79.94
2017-08-11T10:24:11.574Z,79.49
2017-08-11T10:26:39.339Z,79.36
2017-08-11T10:29:07.062Z,79.87
2017-08-11T10:31:34.852Z,80.55
2017-08-11T10:34:02.616Z,82.45
2017-08-11T10:36:30.404Z,80.11
2017-08-11T10:38:58.173Z,80.61
2017-08-11T10:41:25.999Z,83.38
2017-08-11T10:43:53.701Z,83.50
2017-08-11T10:46:21.504Z,83.79
2017-08-11T10:48:49.308Z,85.48
2017-08-11T10:51:17.013Z,84.24
2017-08-11T10:53:44.774Z,84.47
2017-08-11T10:56:12.531Z,86.24
2017-08-11T10:58:41.109Z,84.29
2017-08-11T11:01:08.885Z,84.18
2017-08-11T11:03:36.622Z,85.23
2017-08-11T11:06:04.373Z,80.36
2017-08-11T11:08:32.096Z,84.89
2017-08-11T11:10:59.863Z,84.67
2017-08-11T11:13:27.570Z,86.06
2017-08-11T11:15:55.303Z,85.34
2017-08-11T11:18:23.061Z,85.62
2017-08-11T11:20:51.587Z,84.59
2017-08-11T11:23:19.575Z,84.51
2017-08-11T11:25:47.307Z,87.11
2017-08-11T11:28:15.037Z,84.90
2017-08-11T11:30:42.830Z,85.47
2017-08-11T11:33:10.579Z,85.02
2017-08-11T11:35:38.357Z,82.30
2017-08-11T11:38:06.106Z,83.04
2017-08-11T11:40:33.831Z,82.13
2017-08-11T11:43:01.671Z,83.76
2017-08-11T11:45:29.357Z,81.98
2017-08-11T11:47:57.116Z,82.28
2017-08-11T11:50:24.835Z,78.99
2017-08-11T11:52:52.585Z,77.75
2017-08-11T11:55:20.273Z,79.26
2017-08-11T11:57:48.062Z,78.81
2017-08-11T12:00:15.830Z,76.27
2017-08-11T12:02:43.518Z,77.46
2017-08-11T12:05:11.305Z,77.03
2017-08-11T12:07:38.998Z,76.25
2017-08-11T12:10:06.764Z,77.84
2017-08-11T12:12:34.571Z,76.50
2017-08-11T12:15:02.266Z,76.50
2017-08-11T12:17:30.012Z,75.15
2017-08-11T12:19:57.852Z,75.49
2017-08-11T12:22:25.668Z,72.51
2017-08-11T12:24:53.381Z,76.12
2017-08-11T12:27:21.110Z,75.80
2017-08-11T12:29:49.579Z,72.39
2017-08-11T12:32:17.263Z,74.63
2017-08-11T12:34:44.983Z,69.94
2017-08-11T12:37:12.657Z,72.65
2017-08-11T12:39:40.423Z,70.20
2017-08-11T12:42:08.154Z,71.39
2017-08-11T12:44:35.898Z,72.25
2017-08-11T12:47:03.643Z,71.54
2017-08-11T12:49:31.365Z,66.85
2017-08-11T12:51:59.120Z,68.34
2017-08-11T12:54:26.840Z,70.00
2017-08-11T12:56:54.619Z,72.29
2017-08-11T12:59:22.401Z,72.32
2017-08-11T13:01:50.887Z,71.53
2017-08-11T13:04:18.640Z,72.51
2017-08-11T13:06:46.379Z,72.60
2017-08-11T13:09:14.199Z,70.29
2017-08-11T13:11:41.913Z,68.99
2017-08-11T13:14:10.520Z,71.61
2017-08-11T13:16:38.251Z,71.37
2017-08-11T13:19:05.969Z,71.96
2017-08-11T13:21:33.718Z,70.25
2017-08-11T13:24:01.434Z,71.94
2017-08-11T13:26:29.267Z,72.57
2017-08-11T13:28:57.960Z,70.10
2017-08-11T13:31:25.710Z,71.23
2017-08-11T13:33:53.535Z,72.54
2017-08-11T13:36:21.357Z,73.54
2017-08-11T13:38:49.072Z,70.44
2017-08-11T13:41:16.838Z,74.88
2017-08-11T13:43:44.591Z,73.82
2017-08-11T13:46:12.378Z,73.42
2017-08-11T13:48:40.083Z,73.00
2017-08-11T13:51:07.843Z,74.96
2017-08-11T13:53:35.659Z,74.20
2017-08-11T13:56:03.420Z,75.74
2017-08-11T13:58:31.164Z,73.43
2017-08-11T14:00:58.918Z,75.30
2017-08-11T14:03:26.729Z,75.66
2017-08-11T14:05:54.448Z,77.46
2017-08-11T14:08:22.284Z,75.88
2017-08-11T14:10:49.990Z,76.50
2017-08-11T14:13:17.756Z,76.96
2017-08-11T14:15:45.519Z,77.34
2017-08-11T14:18:13.843Z,74.91
2017-08-11T14:20:41.668Z,74.30
2017-08-11T14:23:09.435Z,71.34
2017-08-11T14:25:37.129Z,71.80
2017-08-11T14:28:05.865Z,75.45
2017-08-11T14:30:33.777Z,77.46
2017-08-11T14:33:01.596Z,76.78
2017-08-11T14:35:29.364Z,78.29
2017-08-11T14:37:57.192Z,77.59
2017-08-11T14:40:26.131Z,76.73
2017-08-11T14:42:53.837Z,75.10
2017-08-11T14:45:21.593Z,68.93
2017-08-11T14:47:49.300Z,72.92
2017-08-11T14:50:17.092Z,72.44
2017-08-11T14:52:44.802Z,71.43
2017-08-11T14:55:12.554Z,74.58
2017-08-11T14:57:41.186Z,71.64
2017-08-11T15:00:08.927Z,70.18
2017-08-11T15:02:36.677Z,72.37
2017-08-11T15:05:04.364Z,73.46
2017-08-11T15:07:32.143Z,72.89
2017-08-11T15:09:59.883Z,71.58
2017-08-11T15:12:27.588Z,71.47
2017-08-11T15:14:55.430Z,70.64
2017-08-11T15:17:23.136Z,69.12
2017-08-11T15:19:50.904Z,70.08
2017-08-11T15:22:18.722Z,72.37
2017-08-11T15:24:46.503Z,71.84
2017-08-11T15:27:14.238Z,72.08
2017-08-11T15:29:41.986Z,69.16
2017-08-11T15:32:10.087Z,70.75
2017-08-11T15:34:37.845Z,71.04
2017-08-11T15:37:05.650Z,71.90
2017-08-11T15:39:33.381Z,70.61
2017-08-11T15:42:01.136Z,72.65
2017-08-11T15:44:28.878Z,72.61
2017-08-11T15:46:56.599Z,73.52
2017-08-11T15:49:24.438Z,74.13
2017-08-11T15:51:52.146Z,75.36
2017-08-11T15:54:19.913Z,73.93
2017-08-11T15:56:47.617Z,72.85
2017-08-11T15:59:15.337Z,76.19
2017-08-11T16:01:43.109Z,76.00
2017-08-11T16:04:10.873Z,72.21
2017-08-11T16:06:38.742Z,73.50
2017-08-11T16:09:06.615Z,74.92
2017-08-11T16:11:34.349Z,74.11
2017-08-11T16:14:02.174Z,73.47
2017-08-11T16:16:29.941Z,75.52
2017-08-11T16:18:57.690Z,77.58
2017-08-11T16:21:25.460Z,77.66
2017-08-11T16:23:53.216Z,78.75
2017-08-11T16:26:20.963Z,78.82
2017-08-11T16:28:48.751Z,75.98
2017-08-11T16:31:16.536Z,74.13
2017-08-11T16:33:44.244Z,74.37
2017-08-11T16:36:11.999Z,74.73
2017-08-11T16:38:39.812Z,74.78
2017-08-11T16:41:07.565Z,74.82
2017-08-11T16:43:35.361Z,74.60
2017-08-11T16:46:03.058Z,77.30
2017-08-11T16:48:30.863Z,77.49
2017-08-11T16:50:58.653Z,77.86
2017-08-11T16:53:26.472Z,79.24
2017-08-11T16:55:54.271Z,79.21
2017-08-11T16:58:21.983Z,77.84
2017-08-11T17:00:49.802Z,76.84
2017-08-11T17:03:17.642Z,76.14
2017-08-11T17:05:45.483Z,77.05
2017-08-11T17:08:13.338Z,76.85
2017-08-11T17:10:41.198Z,78.17
2017-08-11T17:13:09.036Z,75.92
2017-08-11T17:15:36.991Z,77.88
2017-08-11T17:18:04.923Z,78.05
2017-08-11T17:20:32.780Z,79.18
2017-08-11T17:23:00.569Z,79.67
2017-08-11T17:25:28.286Z,79.87
2017-08-11T17:27:56.687Z,78.99
2017-08-11T17:30:24.467Z,80.31
2017-08-11T17:32:52.492Z,79.21
2017-08-11T17:35:20.279Z,78.94
2017-08-11T17:37:48.074Z,78.80
2017-08-11T17:40:15.846Z,78.66
2017-08-11T17:42:43.536Z,78.63
2017-08-11T17:45:11.327Z,80.13
2017-08-11T17:47:39.063Z,81.04
2017-08-11T17:50:06.861Z,81.72
2017-08-11T17:52:34.618Z,82.18
2017-08-11T17:55:02.412Z,81.84
2017-08-11T17:57:30.490Z,81.73
2017-08-11T17:59:58.582Z,81.27
2017-08-11T18:02:26.330Z,80.66
2017-08-11T18:04:54.182Z,81.27
2017-08-11T18:07:21.906Z,79.15
2017-08-11T18:09:49.714Z,78.81
2017-08-11T18:12:17.447Z,79.97
2017-08-11T18:14:45.285Z,79.17
2017-08-11T18:17:13.073Z,79.42
2017-08-11T18:19:40.925Z,78.89
2017-08-11T18:22:08.686Z,80.44
2017-08-11T18:24:36.531Z,79.94
2017-08-11T18:27:04.227Z,79.53
2017-08-11T18:29:35.181Z,80.30
2017-08-11T18:32:02.907Z,81.34
2017-08-11T18:34:34.711Z,81.27
2017-08-11T18:37:03.674Z,80.27
2017-08-11T18:39:31.675Z,82.58
2017-08-11T18:41:59.443Z,83.10
2017-08-11T18:44:27.265Z,82.72
2017-08-11T18:46:55.071Z,82.47
2017-08-11T18:49:22.829Z,81.11
2017-08-11T18:51:50.636Z,81.23
2017-08-11T18:54:18.462Z,83.09
2017-08-11T18:56:47.109Z,82.71
2017-08-11T18:59:15.428Z,82.37
2017-08-11T19:01:43.177Z,80.76
2017-08-11T19:04:10.991Z,81.80
2017-08-11T19:06:38.868Z,81.71
2017-08-11T19:09:06.762Z,82.83
2017-08-11T19:11:34.512Z,83.28
2017-08-11T19:14:03.164Z,82.43
2017-08-11T19:16:32.125Z,83.40
2017-08-11T19:18:59.891Z,82.25
2017-08-11T19:21:27.719Z,81.87
2017-08-11T19:23:55.536Z,80.89
2017-08-11T19:26:23.515Z,80.11
2017-08-11T19:28:52.182Z,81.26
2017-08-11T19:31:20.012Z,81.55
2017-08-11T19:33:47.840Z,78.90
2017-08-11T19:36:15.632Z,76.34
2017-08-11T19:38:43.395Z,76.27
2017-08-11T19:41:11.129Z,76.70
2017-08-11T19:43:40.142Z,76.40
2017-08-11T20:29:47.630Z,73.90
2017-08-11T20:32:15.384Z,75.15
2017-08-11T20:34:43.141Z,74.85
2017-08-11T20:37:12.339Z,75.24
2017-08-11T20:39:40.057Z,75.25
2017-08-11T20:42:07.896Z,77.06
2017-08-11T20:44:35.608Z,76.50
2017-08-11T20:47:03.381Z,75.83
2017-08-11T20:49:31.178Z,77.17
2017-08-11T20:51:58.928Z,77.69
2017-08-11T20:54:26.878Z,77.86
2017-08-11T20:56:54.644Z,78.89
2017-08-11T20:59:22.531Z,79.25
2017-08-11T21:01:50.277Z,76.70
2017-08-11T21:04:18.025Z,74.93
2017-08-11T21:06:45.836Z,76.00
2017-08-11T21:09:13.622Z,75.19
2017-08-11T21:11:41.452Z,76.47
2017-08-11T21:14:09.290Z,76.52
2017-08-11T21:16:37.209Z,75.82
2017-08-11T21:19:05.040Z,75.98
2017-08-11T21:21:32.763Z,75.87
2017-08-11T21:24:00.551Z,75.52
2017-08-11T21:26:28.276Z,75.58
2017-08-11T21:28:56.051Z,76.05
2017-08-11T21:31:23.896Z,76.03
2017-08-11T21:33:51.623Z,75.51
2017-08-11T21:36:19.415Z,77.27
2017-08-11T21:38:47.275Z,77.12
2017-08-11T21:41:15.107Z,77.06
2017-08-11T21:43:42.838Z,76.65
2017-08-11T21:46:10.610Z,77.64
2017-08-11T21:48:38.366Z,76.23
2017-08-11T21:51:06.092Z,77.82
2017-08-11T21:53:33.831Z,77.56
2017-08-11T21:56:01.705Z,78.72
2017-08-11T21:58:29.462Z,77.34
2017-08-11T22:00:57.245Z,74.83
2017-08-11T22:03:24.987Z,75.87
2017-08-11T22:05:52.747Z,79.11
2017-08-11T22:08:20.520Z,81.20
2017-08-11T22:10:48.290Z,81.29
2017-08-11T22:13:16.886Z,82.03
2017-08-11T22:15:44.855Z,82.60
2017-08-11T22:18:12.690Z,81.12
2017-08-11T22:20:40.576Z,81.94
2017-08-11T22:23:08.527Z,81.71
2017-08-11T22:25:36.284Z,81.86
2017-08-11T22:28:04.057Z,81.47
2017-08-11T22:30:31.918Z,81.94
2017-08-11T22:32:59.647Z,82.49
2017-08-11T22:35:27.387Z,83.39
2017-08-11T22:37:55.121Z,83.08
2017-08-11T22:40:22.879Z,83.96
2017-08-11T22:42:50.668Z,83.79
2017-08-11T22:45:18.483Z,84.07
2017-08-11T22:47:46.281Z,84.00
2017-08-11T22:50:14.162Z,84.06
2017-08-11T22:52:41.885Z,83.96
2017-08-11T22:55:09.752Z,84.55
2017-08-11T22:57:37.532Z,84.20
2017-08-11T23:00:05.335Z,84.29
2017-08-11T23:02:33.036Z,84.28
2017-08-11T23:05:00.837Z,83.94
2017-08-11T23:07:28.592Z,84.38
2017-08-11T23:09:56.340Z,84.58
2017-08-11T23:12:24.059Z,84.68
2017-08-11T23:14:51.807Z,84.41
2017-08-11T23:17:19.529Z,83.97
2017-08-11T23:19:47.240Z,84.65
2017-08-11T23:22:14.990Z,84.32
2017-08-11T23:24:42.741Z,83.94
2017-08-11T23:27:10.451Z,83.87
2017-08-11T23:29:38.198Z,83.45
2017-08-11T23:32:05.907Z,83.38
2017-08-11T23:34:33.656Z,84.04
2017-08-11T23:37:01.420Z,84.10
2017-08-11T23:39:29.173Z,84.29
2017-08-11T23:41:56.971Z,84.99
2017-08-11T23:44:24.784Z,84.82
2017-08-11T23:46:52.449Z,85.54
2017-08-11T23:49:20.170Z,84.79
2017-08-11T23:51:47.899Z,83.42
2017-08-11T23:54:15.583Z,82.57
2017-08-11T23:56:43.325Z,82.90
2017-08-11T23:59:11.021Z,84.36
